Flight Track Log - Related Links

Times and Time Zones

All times are in EDT time to prevent confusion due to time zone crossing. See the RPA4907 flight status page for this flight to view local times or setup timezone preferences in your user account.


Time Position Orientation Groundspeed Altitude Reporting Facility
EDT Latitude Longitude Course Direction KTS MPH feet Rate Location/Type
Wed 02:22:34 PM 40.6333 -74.2000 252° West 198 228 2,800  Level New York TRACON
Wed 02:23:34 PM 40.6167 -74.2667 252° West 215 247 5,300 2,100 Climbing New York TRACON
Wed 02:24:34 PM 40.6167 -74.3500 270° West 226 260 7,000 850 Climbing New York TRACON
Wed 02:25:34 PM 40.6000 -74.4333 255° West 259 298 7,000  Level New York TRACON
Wed 02:26:34 PM 40.6000 -74.5333 270° West 246 283 7,000 53 Level New York TRACON
Wed 02:27:28 PM 40.5833 -74.6000 252° West 244 281 7,100 53 Climbing New York TRACON
Wed 02:28:28 PM 40.5500 -74.6833 242° Southwest 249 287 7,100 38 Level New York TRACON
Wed 02:51:12 PM 39.8833 -76.3833 243° Southwest 261 300 8,000 38 Climbing Potomac TRACON
Wed 02:52:12 PM 39.8167 -76.4167 201° Southwest 255 293 8,000 -158 Level Potomac TRACON
Wed 02:53:06 PM 39.7500 -76.4500 201° Southwest 256 295 7,700 -895 Descending Potomac TRACON
Wed 02:54:06 PM 39.6833 -76.4667 191° South 251 289 6,300 -1,238 Descending Potomac TRACON
Wed 02:55:12 PM 39.6167 -76.5000 201° Southwest 240 276 5,100 -619 Descending Potomac TRACON
Wed 02:56:12 PM 39.5667 -76.5500 218° Southwest 224 258 5,000 -53 Descending Potomac TRACON
Wed 02:57:06 PM 39.5167 -76.5833 238° Southwest 229 264 5,000  Level Potomac TRACON
Wed 02:58:12 PM 39.4667 -76.6500 226° Southwest 240 276 5,000  Level Potomac TRACON
Wed 02:59:12 PM 39.4333 -76.7167 237° Southwest 237 273 5,000 -400 Level Potomac TRACON
Wed 03:00:12 PM 39.4000 -76.7833 237° Southwest 233 268 4,200 -500 Descending Potomac TRACON
Wed 03:01:12 PM 39.3500 -76.8500 226° Southwest 220 253 4,000 -398 Descending Potomac TRACON
Wed 03:03:13 PM 39.2500 -76.9000 201° Southwest 226 260 3,000 -323 Descending Potomac TRACON
Wed 03:04:18 PM 39.2000 -76.9000 180° South 180 207 3,000 -450 Level Potomac TRACON
Wed 03:05:13 PM 39.1833 -76.8333 108° East 188 216 2,100 -835 Descending Potomac TRACON
Wed 03:06:13 PM 39.1833 -76.7833 90° East 179 206 1,400 -667 Descending Potomac TRACON
Wed 03:07:19 PM 39.1833 -76.7167 90° East 131 151 700 -636 Descending Potomac TRACON

Login

Don't have an account? Register now (free) for customized features, flight alerts, and more!